EETN

Tallinn Airport

Tallinn, Estonia
METAR EETN 271150Z 05008KT 010V080 CAVOK 19/M00 Q1029 NOSIG
Observed Flight Rules
May-27 @ 11:50 UTC (11 minutes ago) Visual Flight Rules
Wind Visibility Clouds
50° at 8 knots 10,000+ meters
  • Clear skies
Temperatures Readings
Current 19°C / 66°F
Dewpoint 0°C / 32°F
Humidity 28%
Altimeter 30.38" Hg
Pressure 1029 hPa
Elevation 40
METAR EETN 271150Z 05008KT 010V080 CAVOK 19/M00 Q1029 NOSIG
Observed Flight Rules
May-27 @ 11:50 UTC
(11 minutes ago)
VFR
Wind Visibility
50° at 8 knots 10,000+ meters
Clouds
  • Clear skies
Temperature Dewpoint
19°C / 66°F 0°C / 32°F
Humidity Altimeter Pressure
28% 30.38" Hg 1029 hPa